createdAt,value
2022-08-21T00:00:29.044Z,52.11
2022-08-21T00:05:32.384Z,54.30
2022-08-21T00:10:33.790Z,52.50
2022-08-21T00:15:37.539Z,51.65
2022-08-21T00:20:40.713Z,53.60
2022-08-21T00:25:43.213Z,53.72
2022-08-21T00:30:45.570Z,54.31
2022-08-21T00:35:46.921Z,53.06
2022-08-21T00:40:55.290Z,55.48
2022-08-21T00:45:57.847Z,55.24
2022-08-21T00:51:09.518Z,55.48
2022-08-21T00:56:12.443Z,54.50
2022-08-21T01:01:14.879Z,54.98
2022-08-21T01:06:16.294Z,55.72
2022-08-21T01:11:18.225Z,55.58
2022-08-21T01:16:22.427Z,53.97
2022-08-21T01:21:28.072Z,55.69
2022-08-21T01:26:34.329Z,54.84
2022-08-21T01:31:36.103Z,56.46
2022-08-21T01:36:37.565Z,56.72
2022-08-21T01:41:38.943Z,56.88
2022-08-21T01:46:40.546Z,56.24
2022-08-21T01:51:42.168Z,57.70
2022-08-21T01:56:47.242Z,56.57
2022-08-21T02:01:49.410Z,57.08
2022-08-21T02:06:51.070Z,57.61
2022-08-21T02:11:53.162Z,56.51
2022-08-21T02:17:05.538Z,57.27
2022-08-21T02:22:11.871Z,57.79
2022-08-21T02:27:13.207Z,57.84
2022-08-21T02:32:15.840Z,57.90
2022-08-21T02:37:17.362Z,56.98
2022-08-21T02:42:18.935Z,57.00
2022-08-21T02:47:20.363Z,58.07
2022-08-21T02:52:22.829Z,58.81
2022-08-21T02:57:24.221Z,57.94
2022-08-21T03:02:26.662Z,59.63
2022-08-21T03:07:28.156Z,58.80
2022-08-21T03:12:30.081Z,58.27
2022-08-21T03:17:31.980Z,59.03
2022-08-21T03:22:33.628Z,57.47
2022-08-21T03:27:35.414Z,58.30
2022-08-21T03:32:37.205Z,57.54
2022-08-21T03:37:38.617Z,59.24
2022-08-21T03:42:40.408Z,59.38
2022-08-21T03:48:11.171Z,60.89
2022-08-21T03:53:17.355Z,60.70
2022-08-21T03:58:21.249Z,60.17
2022-08-21T04:03:22.631Z,60.29
2022-08-21T04:08:24.342Z,61.67
2022-08-21T04:13:28.952Z,61.41
2022-08-21T04:18:30.381Z,61.60
2022-08-21T04:23:32.130Z,61.38
2022-08-21T04:28:33.470Z,61.86
2022-08-21T04:33:35.542Z,62.72
2022-08-21T04:38:37.754Z,62.01
2022-08-21T04:43:40.390Z,61.25
2022-08-21T04:48:41.878Z,61.93
2022-08-21T04:53:50.022Z,61.43
2022-08-21T04:58:58.175Z,61.19
2022-08-21T05:04:02.751Z,61.87
2022-08-21T05:09:05.249Z,61.32
2022-08-21T05:14:06.647Z,61.28
2022-08-21T05:19:09.132Z,61.30
2022-08-21T05:24:11.275Z,60.09
2022-08-21T05:29:13.577Z,60.13
2022-08-21T05:34:19.135Z,60.16
2022-08-21T05:39:20.768Z,60.24
2022-08-21T05:44:22.490Z,60.59
2022-08-21T05:49:23.949Z,60.49
2022-08-21T05:54:25.707Z,60.07
2022-08-21T05:59:28.546Z,60.25
2022-08-21T06:04:30.238Z,60.91
2022-08-21T06:09:31.726Z,61.97
2022-08-21T06:14:33.154Z,60.52
2022-08-21T06:19:36.251Z,59.62
2022-08-21T06:24:37.634Z,58.84
2022-08-21T06:29:44.378Z,58.76
2022-08-21T06:34:46.191Z,58.44
2022-08-21T06:39:47.571Z,58.00
2022-08-21T06:44:51.178Z,59.95
2022-08-21T06:49:52.582Z,59.75
2022-08-21T06:54:54.760Z,59.79
2022-08-21T06:59:56.110Z,57.75
2022-08-21T07:04:57.482Z,57.68
2022-08-21T07:09:58.917Z,57.71
2022-08-21T07:15:00.399Z,57.39
2022-08-21T07:20:02.065Z,57.45
2022-08-21T07:25:05.246Z,56.99
2022-08-21T07:30:07.545Z,55.94
2022-08-21T07:35:09.039Z,56.07
2022-08-21T07:40:10.887Z,54.92
2022-08-21T07:45:13.714Z,55.65
2022-08-21T07:50:16.276Z,54.22
2022-08-21T07:55:20.575Z,53.59
2022-08-21T08:00:25.219Z,52.62
2022-08-21T08:05:29.017Z,51.85
2022-08-21T08:10:30.581Z,50.15
2022-08-21T08:15:37.349Z,50.69
2022-08-21T08:20:39.063Z,49.59
2022-08-21T08:25:41.952Z,50.58
2022-08-21T08:30:43.553Z,50.46
2022-08-21T08:35:48.606Z,50.59
2022-08-21T08:41:19.781Z,49.08
2022-08-21T08:46:35.271Z,48.29
2022-08-21T08:51:43.139Z,48.77
2022-08-21T08:56:45.994Z,47.30
2022-08-21T09:01:47.753Z,47.73
2022-08-21T09:06:55.311Z,46.13
2022-08-21T09:12:11.370Z,44.53
2022-08-21T09:17:25.053Z,42.21
2022-08-21T09:22:50.596Z,41.46
2022-08-21T09:27:52.397Z,40.62
2022-08-21T09:32:53.883Z,41.20
2022-08-21T09:38:03.745Z,40.13
2022-08-21T09:43:22.740Z,40.07
2022-08-21T09:48:32.459Z,38.94
2022-08-21T09:53:36.303Z,38.30
2022-08-21T09:58:39.913Z,37.54
2022-08-21T10:03:41.418Z,35.59
2022-08-21T10:08:42.894Z,34.89
2022-08-21T10:14:11.010Z,32.29
2022-08-21T10:19:32.066Z,32.80
2022-08-21T10:24:45.740Z,29.46
2022-08-21T10:29:56.063Z,31.01
2022-08-21T10:35:09.243Z,31.56
2022-08-21T10:40:22.419Z,33.02
2022-08-21T10:46:03.522Z,30.52
2022-08-21T10:51:15.069Z,27.85
2022-08-21T10:56:39.302Z,27.52
2022-08-21T11:02:00.636Z,21.57
2022-08-21T11:07:20.776Z,22.72
2022-08-21T11:12:43.500Z,19.61
2022-08-21T11:17:56.469Z,16.91
2022-08-21T11:23:15.500Z,14.75
2022-08-21T11:28:22.382Z,15.71
2022-08-21T11:33:43.382Z,15.01
2022-08-21T11:38:58.028Z,15.52
2022-08-21T11:44:35.380Z,19.78
2022-08-21T11:49:39.508Z,18.60
2022-08-21T11:55:23.497Z,17.10
2022-08-21T12:00:40.091Z,19.08
2022-08-21T12:05:45.634Z,21.02
2022-08-21T12:10:59.813Z,21.74
2022-08-21T12:16:15.406Z,22.59
2022-08-21T12:21:29.466Z,23.12
2022-08-21T12:26:48.592Z,22.87
2022-08-21T12:32:06.214Z,23.98
2022-08-21T12:37:35.931Z,23.41
2022-08-21T12:42:58.046Z,24.49
2022-08-21T12:48:27.089Z,24.12
2022-08-21T12:53:48.967Z,26.61
2022-08-21T12:58:54.721Z,24.54
2022-08-21T13:04:04.630Z,25.07
2022-08-21T13:09:11.765Z,24.46
2022-08-21T13:14:35.095Z,24.48
2022-08-21T13:19:42.239Z,24.51
2022-08-21T13:24:43.971Z,26.17
2022-08-21T13:29:47.454Z,25.00
2022-08-21T13:34:55.436Z,23.90
2022-08-21T13:39:56.960Z,24.69
2022-08-21T13:44:58.367Z,24.08
2022-08-21T13:50:00.548Z,24.44
2022-08-21T13:55:16.907Z,24.18
2022-08-21T14:00:27.758Z,25.15
2022-08-21T14:05:32.787Z,25.84
2022-08-21T14:10:41.766Z,25.32
2022-08-21T14:15:44.390Z,25.06
2022-08-21T14:20:46.655Z,25.17
2022-08-21T14:25:48.169Z,25.77
2022-08-21T14:30:51.523Z,26.58
2022-08-21T14:35:55.354Z,26.49
2022-08-21T14:41:01.242Z,26.21
2022-08-21T14:46:02.655Z,26.23
2022-08-21T14:51:04.137Z,26.27
2022-08-21T14:56:06.001Z,26.62
2022-08-21T15:01:08.418Z,25.70
2022-08-21T15:06:11.357Z,26.94
2022-08-21T15:11:41.108Z,26.87
2022-08-21T15:16:39.246Z,26.75
2022-08-21T15:21:40.635Z,26.38
2022-08-21T15:26:42.630Z,26.74
2022-08-21T15:32:00.653Z,26.32
2022-08-21T15:37:02.082Z,27.00
2022-08-21T15:42:10.587Z,26.63
2022-08-21T15:47:18.856Z,26.27
2022-08-21T15:52:22.291Z,26.40
2022-08-21T15:57:25.415Z,26.83
2022-08-21T16:02:31.247Z,26.79
2022-08-21T16:07:32.713Z,26.90
2022-08-21T16:12:39.561Z,27.07
2022-08-21T16:17:44.593Z,28.20
2022-08-21T16:22:46.319Z,28.10
2022-08-21T16:27:53.632Z,27.66
2022-08-21T16:32:58.097Z,27.92
2022-08-21T16:37:59.692Z,29.09
2022-08-21T16:43:02.174Z,28.94
2022-08-21T16:48:06.460Z,29.51
2022-08-21T16:53:08.553Z,29.31
2022-08-21T16:58:32.266Z,29.08
2022-08-21T17:03:42.287Z,29.04
2022-08-21T17:08:44.742Z,29.71
2022-08-21T17:13:46.057Z,29.64
2022-08-21T17:18:47.806Z,30.11
2022-08-21T17:23:53.614Z,30.07
2022-08-21T17:28:55.227Z,29.58
2022-08-21T17:33:56.872Z,30.30
2022-08-21T17:38:58.865Z,30.17
2022-08-21T17:44:06.195Z,29.86
2022-08-21T17:49:08.513Z,30.88
2022-08-21T17:54:10.399Z,30.62
2022-08-21T17:59:12.165Z,30.65
2022-08-21T18:04:14.251Z,30.58
2022-08-21T18:09:15.620Z,29.88
2022-08-21T18:14:17.022Z,30.35
2022-08-21T18:19:21.350Z,31.11
2022-08-21T18:24:23.907Z,30.67
2022-08-21T18:29:25.363Z,30.67
2022-08-21T18:34:31.776Z,30.83
2022-08-21T18:39:37.269Z,31.13
2022-08-21T18:44:41.224Z,31.18
2022-08-21T18:49:42.634Z,31.07
2022-08-21T18:54:44.332Z,32.38
2022-08-21T18:59:46.548Z,31.62
2022-08-21T19:04:48.197Z,32.58
2022-08-21T19:10:20.993Z,32.12
2022-08-21T19:15:17.333Z,31.86
2022-08-21T19:20:26.161Z,33.36
2022-08-21T19:25:33.919Z,33.84
2022-08-21T19:30:47.935Z,33.27
2022-08-21T19:41:13.833Z,33.74
2022-08-21T19:46:22.122Z,33.29
2022-08-21T19:51:24.019Z,34.19
2022-08-21T19:56:28.939Z,34.47
2022-08-21T20:01:30.455Z,34.45
2022-08-21T20:06:34.820Z,34.50
2022-08-21T20:11:45.168Z,34.57
2022-08-21T20:16:52.435Z,34.24
2022-08-21T20:21:55.086Z,34.54
2022-08-21T20:26:58.329Z,34.08
2022-08-21T20:32:00.270Z,34.60
2022-08-21T20:37:02.053Z,34.19
2022-08-21T20:42:08.769Z,36.28
2022-08-21T20:47:10.676Z,34.63
2022-08-21T20:52:15.905Z,38.54
2022-08-21T20:57:22.003Z,39.23
2022-08-21T21:02:46.093Z,37.40
2022-08-21T21:08:12.071Z,37.23
2022-08-21T21:13:44.570Z,37.00
2022-08-21T21:18:54.295Z,37.16
2022-08-21T21:24:20.345Z,38.02
2022-08-21T21:29:30.356Z,38.67
2022-08-21T21:34:38.343Z,38.83
2022-08-21T21:39:53.155Z,40.37
2022-08-21T21:45:10.110Z,39.41
2022-08-21T21:50:20.948Z,40.54
2022-08-21T21:55:53.265Z,40.30
2022-08-21T22:01:11.977Z,40.80
2022-08-21T22:06:23.018Z,40.34
2022-08-21T22:11:33.273Z,39.92
2022-08-21T22:16:36.892Z,42.19
2022-08-21T22:21:42.483Z,41.11
2022-08-21T22:26:50.660Z,41.50
2022-08-21T22:32:10.457Z,41.99
2022-08-21T22:37:12.832Z,41.90
2022-08-21T22:42:22.207Z,41.72
2022-08-21T22:47:30.437Z,42.51
2022-08-21T22:52:37.264Z,41.51
2022-08-21T22:57:39.599Z,42.67
2022-08-21T23:03:16.477Z,42.46
2022-08-21T23:08:37.273Z,42.24
2022-08-21T23:13:45.757Z,42.77
2022-08-21T23:19:11.355Z,42.37
2022-08-21T23:24:50.404Z,43.12
2022-08-21T23:29:51.809Z,42.68
2022-08-21T23:35:44.179Z,43.41
2022-08-21T23:40:57.994Z,42.98
2022-08-21T23:46:20.983Z,43.17
2022-08-21T23:51:57.453Z,43.28
2022-08-21T23:57:08.247Z,43.63
